createdAt,value
2017-12-22T00:01:27.154Z,16.87
2017-12-22T00:03:55.507Z,19.67
2017-12-22T00:06:23.099Z,19.80
2017-12-22T00:08:51.487Z,20.52
2017-12-22T00:11:19.078Z,19.83
2017-12-22T00:13:46.640Z,20.00
2017-12-22T00:16:14.267Z,20.05
2017-12-22T00:18:41.922Z,19.48
2017-12-22T00:21:10.275Z,18.67
2017-12-22T00:23:37.903Z,18.90
2017-12-22T00:26:05.571Z,19.30
2017-12-22T00:28:33.202Z,18.85
2017-12-22T00:31:00.818Z,20.48
2017-12-22T00:33:28.508Z,19.48
2017-12-22T00:35:56.866Z,18.33
2017-12-22T00:38:24.491Z,18.92
2017-12-22T00:40:52.080Z,19.55
2017-12-22T00:43:19.701Z,19.20
2017-12-22T00:45:59.081Z,19.95
2017-12-22T00:48:26.674Z,18.98
2017-12-22T00:50:54.264Z,18.65
2017-12-22T00:53:21.842Z,20.15
2017-12-22T00:55:49.444Z,19.23
2017-12-22T00:58:17.791Z,19.60
2017-12-22T01:00:45.415Z,20.60
2017-12-22T01:03:13.004Z,20.30
2017-12-22T01:05:40.592Z,19.27
2017-12-22T01:08:08.151Z,20.52
2017-12-22T01:10:35.787Z,18.95
2017-12-22T01:13:04.114Z,20.15
2017-12-22T01:15:37.416Z,19.10
2017-12-22T01:18:10.545Z,19.33
2017-12-22T01:20:38.104Z,19.45
2017-12-22T01:23:05.705Z,19.77
2017-12-22T01:25:34.059Z,19.73
2017-12-22T01:28:01.695Z,19.55
2017-12-22T01:30:29.291Z,20.70
2017-12-22T01:32:56.896Z,20.25
2017-12-22T01:35:24.490Z,20.12
2017-12-22T01:37:52.043Z,18.17
2017-12-22T01:40:19.651Z,19.65
2017-12-22T01:42:48.151Z,18.75
2017-12-22T01:45:15.743Z,18.80
2017-12-22T01:47:43.335Z,18.15
2017-12-22T01:50:10.894Z,17.42
2017-12-22T01:52:38.512Z,16.17
2017-12-22T01:55:06.111Z,17.70
2017-12-22T01:57:33.708Z,16.87
2017-12-22T02:00:02.063Z,17.65
2017-12-22T02:02:29.711Z,17.35
2017-12-22T02:04:57.262Z,16.48
2017-12-22T02:07:24.858Z,16.02
2017-12-22T02:09:53.271Z,16.02
2017-12-22T02:12:20.863Z,17.87
2017-12-22T02:14:48.487Z,18.70
2017-12-22T02:17:16.078Z,19.60
2017-12-22T02:19:43.633Z,18.25
2017-12-22T02:22:11.224Z,19.37
2017-12-22T02:24:38.824Z,19.45
2017-12-22T02:27:06.412Z,19.52
2017-12-22T02:29:34.001Z,18.65
2017-12-22T02:32:01.678Z,19.17
2017-12-22T02:34:29.241Z,20.40
2017-12-22T02:36:57.601Z,18.87
2017-12-22T02:39:25.194Z,20.45
2017-12-22T02:41:52.792Z,19.17
2017-12-22T02:44:20.349Z,20.58
2017-12-22T02:46:47.947Z,18.75
2017-12-22T02:49:15.565Z,18.50
2017-12-22T02:51:43.155Z,17.60
2017-12-22T02:54:10.751Z,19.00
2017-12-22T02:56:39.113Z,17.60
2017-12-22T02:59:06.709Z,17.85
2017-12-22T03:01:34.294Z,18.73
2017-12-22T03:04:01.846Z,18.70
2017-12-22T03:06:29.464Z,20.00
2017-12-22T03:08:57.822Z,20.25
2017-12-22T03:11:25.381Z,20.00
2017-12-22T03:13:52.982Z,18.90
2017-12-22T03:16:20.545Z,20.90
2017-12-22T03:18:48.100Z,21.83
2017-12-22T03:21:15.696Z,20.20
2017-12-22T03:23:43.321Z,20.90
2017-12-22T03:26:10.916Z,18.87
2017-12-22T03:28:38.507Z,19.58
2017-12-22T03:31:06.113Z,18.52
2017-12-22T03:33:33.706Z,20.52
2017-12-22T03:36:01.296Z,19.33
2017-12-22T03:38:29.627Z,18.73
2017-12-22T03:40:57.220Z,18.35
2017-12-22T03:43:24.778Z,19.58
2017-12-22T03:45:52.329Z,19.80
2017-12-22T03:48:21.090Z,18.12
2017-12-22T03:50:48.688Z,17.77
2017-12-22T03:53:16.362Z,19.73
2017-12-22T03:55:43.957Z,19.58
2017-12-22T03:58:11.611Z,19.42
2017-12-22T04:00:39.216Z,20.08
2017-12-22T04:03:06.775Z,20.20
2017-12-22T04:05:34.367Z,19.55
2017-12-22T04:08:01.918Z,20.83
2017-12-22T04:10:29.533Z,20.17
2017-12-22T04:12:57.106Z,20.25
2017-12-22T04:15:24.958Z,19.60
2017-12-22T04:17:52.548Z,18.40
2017-12-22T04:20:20.106Z,19.15
2017-12-22T04:22:47.795Z,20.02
2017-12-22T04:25:15.383Z,18.58
2017-12-22T04:27:43.682Z,19.33
2017-12-22T04:30:11.244Z,16.98
2017-12-22T04:32:38.836Z,18.37
2017-12-22T04:35:06.428Z,16.42
2017-12-22T04:37:34.796Z,17.87
2017-12-22T04:40:03.332Z,16.83
2017-12-22T04:42:30.920Z,16.62
2017-12-22T04:44:58.564Z,17.17
2017-12-22T04:47:26.159Z,17.67
2017-12-22T04:49:53.748Z,17.92
2017-12-22T04:52:21.343Z,18.17
2017-12-22T04:54:48.896Z,17.92
2017-12-22T04:57:16.500Z,17.90
2017-12-22T04:59:44.052Z,16.92
2017-12-22T05:02:11.651Z,16.25
2017-12-22T05:04:39.248Z,17.85
2017-12-22T05:07:06.839Z,16.95
2017-12-22T05:09:35.628Z,17.27
2017-12-22T05:12:03.251Z,18.92
2017-12-22T05:14:30.858Z,16.58
2017-12-22T05:16:58.459Z,16.90
2017-12-22T05:19:26.014Z,18.12
2017-12-22T05:21:54.324Z,17.67
2017-12-22T05:24:21.920Z,18.98
2017-12-22T05:26:50.246Z,18.37
2017-12-22T05:29:17.838Z,16.48
2017-12-22T05:31:45.437Z,18.10
2017-12-22T05:34:13.106Z,19.37
2017-12-22T05:36:40.711Z,16.95
2017-12-22T05:39:08.336Z,18.20
2017-12-22T05:41:35.940Z,16.60
2017-12-22T05:44:03.520Z,19.00
2017-12-22T05:46:31.076Z,17.83
2017-12-22T05:48:58.672Z,16.77
2017-12-22T05:51:26.313Z,18.08
2017-12-22T05:53:54.889Z,17.92
2017-12-22T05:56:22.442Z,17.75
2017-12-22T05:58:50.095Z,17.35
2017-12-22T06:01:17.645Z,16.30
2017-12-22T06:03:45.241Z,17.52
2017-12-22T06:06:13.600Z,16.85
2017-12-22T06:08:41.224Z,18.12
2017-12-22T06:11:08.770Z,15.90
2017-12-22T06:13:36.374Z,17.40
2017-12-22T06:16:03.968Z,16.10
2017-12-22T06:18:32.318Z,16.30
2017-12-22T06:20:59.920Z,14.50
2017-12-22T06:23:27.479Z,16.98
2017-12-22T06:25:55.101Z,16.48
2017-12-22T06:28:22.698Z,15.85
2017-12-22T06:30:50.265Z,16.60
2017-12-22T06:33:17.864Z,16.73
2017-12-22T06:35:45.495Z,16.42
2017-12-22T06:38:13.575Z,17.35
2017-12-22T06:40:41.171Z,17.70
2017-12-22T06:43:08.736Z,17.25
2017-12-22T06:45:36.335Z,16.87
2017-12-22T06:48:03.887Z,18.62
2017-12-22T06:50:31.492Z,17.48
2017-12-22T06:52:59.163Z,18.52
2017-12-22T06:55:26.721Z,19.25
2017-12-22T06:57:54.324Z,18.10
2017-12-22T07:00:22.660Z,20.33
2017-12-22T07:02:50.300Z,20.33
2017-12-22T07:05:17.897Z,19.62
2017-12-22T07:07:46.327Z,19.95
2017-12-22T07:10:13.915Z,18.70
2017-12-22T07:12:41.513Z,18.42
2017-12-22T07:15:09.840Z,20.45
2017-12-22T07:17:37.451Z,19.85
2017-12-22T07:20:05.819Z,19.90
2017-12-22T07:22:33.418Z,20.02
2017-12-22T07:25:01.007Z,21.00
2017-12-22T07:27:28.606Z,19.00
2017-12-22T07:29:56.200Z,21.15
2017-12-22T07:32:23.803Z,21.08
2017-12-22T07:34:51.394Z,22.45
2017-12-22T07:37:20.532Z,22.48
2017-12-22T07:39:48.133Z,22.10
2017-12-22T07:42:15.731Z,21.73
2017-12-22T07:44:44.727Z,21.50
2017-12-22T07:47:12.332Z,24.50
2017-12-22T07:49:39.977Z,23.80
2017-12-22T07:52:07.576Z,21.80
2017-12-22T07:54:35.175Z,22.40
2017-12-22T07:57:02.767Z,24.65
2017-12-22T07:59:30.367Z,24.25
2017-12-22T08:01:57.929Z,22.45
2017-12-22T08:04:25.529Z,25.75
2017-12-22T08:06:53.155Z,22.90
2017-12-22T08:09:21.524Z,22.30
2017-12-22T08:11:49.128Z,22.67
2017-12-22T08:14:16.724Z,22.52
2017-12-22T08:16:44.317Z,24.63
2017-12-22T08:19:12.674Z,23.60
2017-12-22T08:21:40.259Z,23.35
2017-12-22T08:24:08.580Z,21.23
2017-12-22T08:26:36.207Z,21.48
2017-12-22T08:29:04.525Z,21.92
2017-12-22T08:31:32.115Z,22.87
2017-12-22T08:33:59.665Z,23.90
2017-12-22T08:36:27.238Z,22.60
2017-12-22T08:38:54.854Z,22.55
2017-12-22T08:41:22.409Z,24.45
2017-12-22T08:43:51.032Z,22.25
2017-12-22T08:46:18.628Z,23.05
2017-12-22T08:48:46.982Z,24.27
2017-12-22T08:51:14.587Z,23.92
2017-12-22T08:53:42.188Z,24.40
2017-12-22T08:56:09.784Z,24.20
2017-12-22T08:58:38.140Z,23.30
2017-12-22T09:01:05.727Z,23.50
2017-12-22T09:03:34.052Z,21.33
2017-12-22T09:06:01.608Z,23.30
2017-12-22T09:08:29.662Z,20.92
2017-12-22T09:10:57.264Z,21.52
2017-12-22T09:13:24.823Z,23.27
2017-12-22T09:15:52.435Z,26.08
2017-12-22T09:18:20.025Z,23.65
2017-12-22T09:20:47.588Z,21.98
2017-12-22T09:23:15.179Z,21.77
2017-12-22T09:25:42.736Z,21.98
2017-12-22T09:28:10.298Z,21.55
2017-12-22T09:30:37.892Z,21.25
2017-12-22T09:33:05.531Z,19.98
2017-12-22T09:35:33.069Z,19.92
2017-12-22T09:38:00.671Z,19.48
2017-12-22T09:40:28.270Z,21.20
2017-12-22T09:42:56.637Z,20.88
2017-12-22T09:45:24.231Z,20.88
2017-12-22T09:47:51.864Z,21.75
2017-12-22T09:50:19.469Z,22.50
2017-12-22T09:52:47.842Z,21.42
2017-12-22T09:55:16.663Z,22.00
2017-12-22T09:57:44.258Z,21.58
2017-12-22T10:00:11.852Z,21.48
2017-12-22T10:02:39.422Z,20.85
2017-12-22T10:05:07.783Z,20.33
2017-12-22T10:07:35.430Z,22.45
2017-12-22T10:10:02.985Z,22.75
2017-12-22T10:12:30.584Z,22.13
2017-12-22T10:14:58.944Z,23.50
2017-12-22T10:17:26.542Z,22.73
2017-12-22T10:19:54.761Z,21.80
2017-12-22T10:22:22.374Z,23.85
2017-12-22T10:24:49.932Z,25.37
2017-12-22T10:27:18.287Z,23.95
2017-12-22T10:29:45.872Z,22.67
2017-12-22T10:32:14.236Z,23.27
2017-12-22T10:34:42.599Z,25.60
2017-12-22T10:37:10.152Z,22.05
2017-12-22T10:39:37.751Z,21.62
2017-12-22T10:42:06.176Z,23.00
2017-12-22T10:44:33.731Z,24.92
2017-12-22T10:47:01.361Z,25.23
2017-12-22T10:49:29.666Z,22.73
2017-12-22T10:51:57.221Z,24.10
2017-12-22T10:54:24.814Z,24.20
2017-12-22T10:56:52.419Z,26.10
2017-12-22T10:59:20.015Z,24.87
2017-12-22T11:01:47.570Z,23.73
2017-12-22T11:04:15.128Z,22.90
2017-12-22T11:06:42.688Z,24.45
2017-12-22T11:09:10.336Z,27.83
2017-12-22T11:11:37.990Z,29.37
2017-12-22T11:14:06.420Z,28.02
2017-12-22T11:16:34.015Z,25.55
2017-12-22T11:19:01.591Z,24.00
2017-12-22T11:21:29.187Z,24.58
2017-12-22T11:23:56.938Z,26.35
2017-12-22T11:26:24.497Z,30.62
2017-12-22T11:28:52.050Z,25.95
2017-12-22T11:31:19.927Z,23.02
2017-12-22T11:33:47.581Z,24.20
2017-12-22T11:36:15.210Z,24.83
2017-12-22T11:38:43.571Z,23.02
2017-12-22T11:41:11.172Z,22.85
2017-12-22T11:43:38.794Z,24.33
2017-12-22T11:46:07.156Z,22.17
2017-12-22T11:48:34.823Z,24.73
2017-12-22T11:51:02.477Z,22.67
2017-12-22T11:53:30.084Z,25.08
2017-12-22T11:55:57.683Z,22.58
2017-12-22T11:58:25.307Z,22.67
2017-12-22T12:00:52.958Z,22.50
2017-12-22T12:03:21.484Z,22.60
2017-12-22T12:05:49.932Z,22.85
2017-12-22T12:08:17.593Z,21.90
2017-12-22T12:10:45.329Z,22.08
2017-12-22T12:13:13.770Z,22.62
2017-12-22T12:15:42.174Z,22.62
2017-12-22T12:18:10.103Z,21.73
2017-12-22T12:20:37.765Z,22.92
2017-12-22T12:23:05.444Z,20.65
2017-12-22T12:25:33.283Z,21.58
2017-12-22T12:28:00.972Z,20.05
2017-12-22T12:30:28.593Z,19.92
2017-12-22T12:32:56.964Z,17.85
2017-12-22T12:35:25.344Z,20.37
2017-12-22T12:37:53.819Z,18.48
2017-12-22T12:40:22.207Z,21.00
2017-12-22T12:42:50.877Z,19.92
2017-12-22T12:45:18.520Z,22.80
2017-12-22T12:47:46.126Z,21.52
2017-12-22T12:50:14.610Z,22.10
2017-12-22T12:52:42.279Z,22.48
2017-12-22T12:55:09.948Z,22.30
2017-12-22T12:57:37.947Z,23.55
2017-12-22T13:00:05.628Z,22.95
2017-12-22T13:02:33.231Z,22.10
2017-12-22T13:05:00.865Z,23.02
2017-12-22T13:07:29.217Z,21.83
2017-12-22T13:09:56.836Z,21.70
2017-12-22T13:12:24.461Z,22.50
2017-12-22T13:14:53.093Z,23.55
2017-12-22T13:17:20.726Z,22.35
2017-12-22T13:19:48.360Z,21.92
2017-12-22T13:22:16.058Z,23.80
2017-12-22T13:24:43.625Z,24.60
2017-12-22T13:27:11.872Z,21.42
2017-12-22T13:29:40.282Z,21.70
2017-12-22T13:32:08.138Z,19.62
2017-12-22T13:34:36.394Z,20.33
2017-12-22T13:37:04.462Z,19.85
2017-12-22T13:39:32.566Z,18.10
2017-12-22T13:42:00.700Z,17.15
2017-12-22T13:44:28.836Z,19.83
2017-12-22T13:46:57.194Z,24.35
2017-12-22T13:49:25.802Z,14.73
2017-12-22T13:51:53.832Z,13.75
2017-12-22T13:54:21.970Z,15.75
2017-12-22T13:56:50.115Z,15.98
2017-12-22T13:59:19.057Z,14.55
2017-12-22T14:01:47.181Z,14.27
2017-12-22T14:04:15.320Z,14.32
2017-12-22T14:06:43.473Z,15.52
2017-12-22T14:09:11.169Z,14.07
2017-12-22T14:11:38.765Z,13.13
2017-12-22T14:14:06.359Z,13.40
2017-12-22T14:16:33.951Z,12.80
2017-12-22T14:19:01.508Z,12.73
2017-12-22T14:21:29.100Z,11.65
2017-12-22T14:23:56.708Z,9.57
2017-12-22T14:26:26.154Z,11.07
2017-12-22T14:28:54.807Z,9.98
2017-12-22T14:31:23.251Z,8.70
2017-12-22T14:33:50.989Z,9.02
2017-12-22T14:36:18.779Z,8.70
2017-12-22T14:38:46.377Z,10.93
2017-12-22T14:41:14.740Z,9.00
2017-12-22T14:43:42.448Z,8.70
2017-12-22T14:46:10.515Z,7.28
2017-12-22T14:48:38.105Z,7.10
2017-12-22T14:51:07.890Z,7.18
2017-12-22T14:53:35.522Z,7.70
2017-12-22T14:56:03.884Z,7.03
2017-12-22T14:58:31.503Z,6.80
2017-12-22T15:00:59.203Z,7.78
2017-12-22T15:03:26.753Z,6.57
2017-12-22T15:05:54.379Z,6.70
2017-12-22T15:08:21.980Z,5.45
2017-12-22T15:10:49.572Z,7.03
2017-12-22T15:13:17.171Z,6.03
2017-12-22T15:15:44.755Z,5.47
2017-12-22T15:18:12.349Z,6.10
2017-12-22T15:20:40.708Z,7.32
2017-12-22T15:23:08.295Z,6.15
2017-12-22T15:25:36.607Z,6.20
2017-12-22T15:28:04.295Z,7.00
2017-12-22T15:30:31.883Z,7.75
2017-12-22T15:33:00.266Z,9.60
2017-12-22T15:35:28.868Z,9.60
2017-12-22T15:37:56.458Z,8.95
2017-12-22T15:40:24.051Z,10.45
2017-12-22T15:42:52.727Z,9.77
2017-12-22T15:45:20.916Z,9.80
2017-12-22T15:47:49.460Z,9.95
2017-12-22T15:50:17.057Z,8.90
2017-12-22T15:52:44.696Z,9.55
2017-12-22T15:55:12.555Z,11.45
2017-12-22T15:57:40.160Z,10.10
2017-12-22T16:00:08.542Z,11.80
2017-12-22T16:02:37.032Z,10.25
2017-12-22T16:05:04.760Z,10.65
2017-12-22T16:07:32.354Z,10.05
2017-12-22T16:10:01.170Z,10.65
2017-12-22T16:12:28.775Z,10.38
2017-12-22T16:14:56.508Z,10.00
2017-12-22T16:17:24.105Z,11.23
2017-12-22T16:19:51.709Z,10.13
2017-12-22T16:22:20.086Z,10.68
2017-12-22T16:24:47.802Z,9.75
2017-12-22T16:27:15.412Z,10.63
2017-12-22T16:29:43.024Z,9.23
2017-12-22T16:32:10.662Z,9.77
2017-12-22T16:34:38.284Z,10.32
2017-12-22T16:37:05.892Z,10.88
2017-12-22T16:39:33.540Z,10.10
2017-12-22T16:42:01.248Z,11.52
2017-12-22T16:44:28.859Z,14.20
2017-12-22T16:46:56.456Z,11.48
2017-12-22T16:49:24.075Z,11.30
2017-12-22T16:51:51.723Z,10.27
2017-12-22T16:54:19.322Z,10.57
2017-12-22T16:56:46.913Z,12.10
2017-12-22T16:59:14.512Z,12.68
2017-12-22T17:01:42.109Z,11.73
2017-12-22T17:04:09.897Z,12.82
2017-12-22T17:06:37.429Z,11.52
2017-12-22T17:09:05.028Z,12.68
2017-12-22T17:11:33.390Z,12.10
2017-12-22T17:14:00.988Z,11.88
2017-12-22T17:16:28.588Z,12.13
2017-12-22T17:18:56.837Z,13.05
2017-12-22T17:21:24.427Z,12.00
2017-12-22T17:23:52.033Z,13.55
2017-12-22T17:26:20.412Z,14.10
2017-12-22T17:28:48.017Z,13.35
2017-12-22T17:31:15.621Z,12.43
2017-12-22T17:33:43.983Z,11.02
2017-12-22T17:36:11.596Z,12.05
2017-12-22T17:38:39.942Z,11.73
2017-12-22T17:41:07.688Z,13.10
2017-12-22T17:43:35.347Z,12.32
2017-12-22T17:46:03.056Z,12.88
2017-12-22T17:48:30.886Z,12.60
2017-12-22T17:50:58.823Z,13.07
2017-12-22T17:53:26.416Z,14.05
2017-12-22T17:55:54.044Z,12.75
2017-12-22T17:58:21.637Z,14.05
2017-12-22T18:00:49.146Z,13.13
2017-12-22T18:03:16.742Z,13.13
2017-12-22T18:05:44.373Z,14.35
2017-12-22T18:08:12.034Z,14.00
2017-12-22T18:10:40.787Z,14.73
2017-12-22T18:13:09.218Z,13.07
2017-12-22T18:15:36.814Z,14.82
2017-12-22T18:18:04.408Z,14.90
2017-12-22T18:20:32.016Z,12.65
2017-12-22T18:22:59.602Z,12.93
2017-12-22T18:25:27.929Z,14.87
2017-12-22T18:27:55.522Z,12.75
2017-12-22T18:30:23.168Z,13.30
2017-12-22T18:32:50.914Z,13.13
2017-12-22T18:35:18.509Z,18.30
2017-12-22T18:37:46.097Z,15.35
2017-12-22T18:40:14.497Z,11.23
2017-12-22T18:42:42.094Z,11.35
2017-12-22T18:45:09.686Z,10.77
2017-12-22T18:47:38.043Z,11.52
2017-12-22T18:50:06.499Z,10.60
2017-12-22T18:52:34.146Z,13.43
2017-12-22T18:55:01.756Z,12.65
2017-12-22T18:57:29.522Z,15.05
2017-12-22T18:59:58.737Z,13.00
2017-12-22T19:02:27.209Z,11.90
2017-12-22T19:04:55.574Z,10.98
2017-12-22T19:07:23.169Z,11.25
2017-12-22T19:09:50.780Z,11.70
2017-12-22T19:12:18.386Z,11.15
2017-12-22T19:14:46.765Z,12.95
2017-12-22T19:17:15.121Z,11.82
2017-12-22T19:19:42.712Z,13.32
2017-12-22T19:22:10.356Z,11.57
2017-12-22T19:24:39.120Z,11.43
2017-12-22T19:27:06.715Z,11.80
2017-12-22T19:29:35.072Z,12.80
2017-12-22T19:32:02.795Z,11.05
2017-12-22T19:34:30.355Z,11.52
2017-12-22T19:36:58.063Z,11.40
2017-12-22T19:39:26.432Z,11.38
2017-12-22T19:41:54.037Z,11.70
2017-12-22T19:44:22.667Z,11.45
2017-12-22T19:46:50.258Z,11.80
2017-12-22T19:49:18.582Z,12.23
2017-12-22T19:51:46.175Z,9.95
2017-12-22T19:54:13.809Z,9.98
2017-12-22T19:56:41.414Z,10.82
2017-12-22T19:59:09.738Z,10.60
2017-12-22T20:01:37.331Z,10.68
2017-12-22T20:04:04.921Z,9.07
2017-12-22T20:06:33.251Z,9.73
2017-12-22T20:09:00.842Z,9.30
2017-12-22T20:11:28.479Z,10.18
2017-12-22T20:13:56.124Z,9.07
2017-12-22T20:16:24.023Z,9.60
2017-12-22T20:18:51.620Z,9.27
2017-12-22T20:21:19.228Z,9.43
2017-12-22T20:23:46.827Z,8.55
2017-12-22T20:26:15.194Z,7.93
2017-12-22T20:28:42.862Z,8.95
2017-12-22T20:31:11.191Z,9.73
2017-12-22T20:33:38.790Z,8.43
2017-12-22T20:36:06.404Z,8.38
2017-12-22T20:38:34.000Z,8.43
2017-12-22T20:41:01.566Z,8.88
2017-12-22T20:43:34.193Z,9.10
2017-12-22T20:46:02.125Z,9.52
2017-12-22T21:05:50.827Z,8.40
2017-12-22T21:08:19.151Z,8.02
2017-12-22T21:10:46.926Z,6.80
2017-12-22T21:13:14.715Z,7.53
2017-12-22T21:15:42.306Z,7.70
2017-12-22T21:18:10.657Z,6.85
2017-12-22T21:20:38.325Z,8.23
2017-12-22T21:23:05.907Z,6.75
2017-12-22T21:25:34.185Z,5.85
2017-12-22T21:28:02.605Z,6.15
2017-12-22T21:30:30.304Z,6.07
2017-12-22T21:32:57.959Z,6.05
2017-12-22T21:35:25.544Z,6.65
2017-12-22T21:37:53.899Z,6.78
2017-12-22T21:40:21.665Z,6.70
2017-12-22T21:42:49.251Z,7.22
2017-12-22T21:45:17.591Z,6.72
2017-12-22T21:47:45.196Z,6.45
2017-12-22T21:50:13.544Z,5.60
2017-12-22T21:52:41.123Z,6.93
2017-12-22T21:55:09.487Z,7.20
2017-12-22T21:57:37.056Z,6.05
2017-12-22T22:00:04.671Z,6.57
2017-12-22T22:02:32.278Z,7.05
2017-12-22T22:05:00.653Z,7.55
2017-12-22T22:07:28.565Z,7.40
2017-12-22T22:09:56.733Z,6.25
2017-12-22T22:12:24.318Z,8.00
2017-12-22T22:14:51.872Z,7.40
2017-12-22T22:17:19.504Z,6.93
2017-12-22T22:19:47.851Z,7.87
2017-12-22T22:22:15.440Z,7.53
2017-12-22T22:24:43.801Z,7.12
2017-12-22T22:27:11.407Z,6.37
2017-12-22T22:29:38.999Z,6.65
2017-12-22T22:32:06.599Z,6.80
2017-12-22T22:34:34.956Z,6.80
2017-12-22T22:37:02.506Z,7.47
2017-12-22T22:39:30.098Z,5.90
2017-12-22T22:41:58.462Z,7.15
2017-12-22T22:44:26.047Z,6.68
2017-12-22T22:46:53.645Z,7.57
2017-12-22T22:49:21.235Z,7.32
2017-12-22T22:51:48.833Z,7.20
2017-12-22T22:54:16.427Z,7.35
2017-12-22T22:56:43.977Z,7.05
2017-12-22T22:59:11.527Z,6.53
2017-12-22T23:01:39.107Z,7.10
2017-12-22T23:04:06.688Z,7.03
2017-12-22T23:06:34.271Z,7.28
2017-12-22T23:09:02.627Z,6.00
2017-12-22T23:11:30.175Z,6.40
2017-12-22T23:13:57.770Z,5.82
2017-12-22T23:16:26.133Z,6.47
2017-12-22T23:18:53.727Z,6.72
2017-12-22T23:21:21.316Z,6.47
2017-12-22T23:23:48.913Z,6.60
2017-12-22T23:26:16.467Z,6.85
2017-12-22T23:28:44.023Z,6.93
2017-12-22T23:31:11.577Z,6.65
2017-12-22T23:33:39.168Z,7.25
2017-12-22T23:36:07.539Z,6.95
2017-12-22T23:38:35.128Z,7.60
2017-12-22T23:41:02.716Z,7.20
2017-12-22T23:43:30.272Z,7.68
2017-12-22T23:45:57.824Z,7.15
2017-12-22T23:48:25.412Z,6.78
2017-12-22T23:50:53.043Z,8.00
2017-12-22T23:53:20.605Z,6.43
2017-12-22T23:55:48.194Z,7.18
2017-12-22T23:58:15.842Z,8.02
